Terminal Aerodrome Forecast
Issued by NWS

Home | Current Version | Previous Version | Text Only | Print | Product List | Glossary On
Versions: 1 2 3 4 5 6 7 8 9 10 11 12 13 14 15 16 17 18
697
FTUS41 KBTV 161305 AAA
TAFRUT
TAF AMD
KRUT 161305Z 1613/1712 31005KT P6SM SCT004 BKN015
     FM161400 35008KT P6SM OVC025
     FM161600 35007KT P6SM SCT025
     FM170100 VRB03KT P6SM SKC=

USA.gov is the U.S. government's official web portal to all federal, state and local government web resources and services.